Eagle, Idaho
Current Conditions -  °F | °C
As of 3:53 PM on Monday 24 Nov 2014 (Local Time) from KBOI Reporting Station
Clear Clear  
Wind Chill: 42°   Ceiling: Unl
Heat Index: 46°   Visibility: 10mi
Dew Point: 27°   Wind: 7mph
Humidity: 47%   Direction: 350°N
Pressure: 30.4"   Gusts: NA
Location:  43.7°N, 116.35°W
Report Text: KBOI 242253Z 35006KT 10SM CLR 08/M03 A3040 RMK AO2 SLP304 T00781028
Loading
Personal Weather Stations






























Interactive Weather Map New forecast layout! Learn more

10-Day Weather Forecast

Advertisements
Track Severe Weather on mobile